Terminal Aerodrome Forecast
Issued by NWS

Home | Current Version | Previous Version | Text Only | Print | Product List | Glossary On
Versions: 1 2 3 4 5 6 7 8 9 10 11 12 13 14 15 16 17 18
000
FTUS46 KLOX 300041 AAA
TAFPMD
TAF AMD
KPMD 300041Z 3001/3024 VRB05KT P6SM VCTS BKN110CB
     FM300300 22008KT P6SM VCTS BKN100CB
     FM301200 VRB05KT P6SM BKN150
     FM301800 24012KT P6SM BKN150 PROB30 3018/3023 TSRA BKN050CB=

USA.gov is the U.S. government's official web portal to all federal, state and local government web resources and services.